createdAt,value
2023-01-04T00:01:50.263Z,5.18
2023-01-04T00:04:16.724Z,5.46
2023-01-04T00:06:43.137Z,5.48
2023-01-04T00:09:09.688Z,5.50
2023-01-04T00:11:36.097Z,5.41
2023-01-04T00:14:02.634Z,5.52
2023-01-04T00:16:29.528Z,5.53
2023-01-04T00:18:57.474Z,5.55
2023-01-04T00:21:31.415Z,5.68
2023-01-04T00:24:00.510Z,5.89
2023-01-04T00:26:30.267Z,5.83
2023-01-04T00:28:59.204Z,5.68
2023-01-04T00:31:26.363Z,5.72
2023-01-04T00:33:58.230Z,5.78
2023-01-04T00:36:25.285Z,5.77
2023-01-04T00:39:07.180Z,5.79
2023-01-04T00:44:26.143Z,5.99
2023-01-04T00:46:52.947Z,5.97
2023-01-04T00:49:19.503Z,5.97
2023-01-04T00:51:45.941Z,6.19
2023-01-04T00:54:14.454Z,6.13
2023-01-04T00:56:40.905Z,6.25
2023-01-04T00:59:07.480Z,6.30
2023-01-04T01:01:35.231Z,6.29
2023-01-04T01:04:04.321Z,6.30
2023-01-04T01:06:33.494Z,6.26
2023-01-04T01:09:00.543Z,6.28
2023-01-04T01:11:27.402Z,6.21
2023-01-04T01:13:54.072Z,6.16
2023-01-04T01:16:44.411Z,6.35
2023-01-04T01:19:09.372Z,6.47
2023-01-04T01:21:35.870Z,6.22
2023-01-04T01:24:02.428Z,6.30
2023-01-04T01:26:28.899Z,6.13
2023-01-04T01:28:55.316Z,6.25
2023-01-04T01:31:24.357Z,6.27
2023-01-04T01:33:53.210Z,6.32
2023-01-04T01:36:21.419Z,6.38
2023-01-04T01:38:48.186Z,6.31
2023-01-04T01:41:24.296Z,6.18
2023-01-04T01:44:44.182Z,6.22
2023-01-04T01:47:17.191Z,6.22
2023-01-04T01:49:46.759Z,6.24
2023-01-04T01:52:25.249Z,6.34
2023-01-04T01:54:58.720Z,6.32
2023-01-04T01:57:31.560Z,6.24
2023-01-04T02:00:02.291Z,6.15
2023-01-04T02:02:29.285Z,6.05
2023-01-04T02:04:56.715Z,6.05
2023-01-04T02:07:26.547Z,5.90
2023-01-04T02:09:54.067Z,5.92
2023-01-04T02:12:20.528Z,5.97
2023-01-04T02:14:50.251Z,6.16
2023-01-04T02:17:19.645Z,6.24
2023-01-04T02:20:14.021Z,6.32
2023-01-04T02:23:01.805Z,6.52
2023-01-04T02:25:54.673Z,6.64
2023-01-04T02:28:39.536Z,6.58
2023-01-04T02:31:43.963Z,6.66
2023-01-04T02:34:54.792Z,6.66
2023-01-04T02:37:39.616Z,6.62
2023-01-04T02:40:26.242Z,6.76
2023-01-04T02:43:16.300Z,6.65
2023-01-04T02:45:50.967Z,6.54
2023-01-04T02:48:35.693Z,6.64
2023-01-04T02:51:02.124Z,6.50
2023-01-04T02:53:34.417Z,6.58
2023-01-04T02:56:35.522Z,6.50
2023-01-04T02:59:33.406Z,6.42
2023-01-04T03:02:43.283Z,6.38
2023-01-04T03:05:43.994Z,6.53
2023-01-04T03:08:36.737Z,6.30
2023-01-04T03:11:27.250Z,6.27
2023-01-04T03:13:59.117Z,6.34
2023-01-04T03:16:26.705Z,6.38
2023-01-04T03:18:56.518Z,6.26
2023-01-04T03:21:27.521Z,6.30
2023-01-04T03:24:17.239Z,6.26
2023-01-04T03:27:09.971Z,6.32
2023-01-04T03:30:00.980Z,6.18
2023-01-04T03:33:01.403Z,6.43
2023-01-04T03:35:37.705Z,6.28
2023-01-04T03:38:48.075Z,6.52
2023-01-04T03:41:54.017Z,6.58
2023-01-04T03:44:49.941Z,6.17
2023-01-04T03:47:53.400Z,6.08
2023-01-04T03:50:23.950Z,6.19
2023-01-04T03:52:53.404Z,6.03
2023-01-04T03:55:20.250Z,6.01
2023-01-04T03:57:47.913Z,5.83
2023-01-04T04:00:17.897Z,5.72
2023-01-04T04:02:48.251Z,5.82
2023-01-04T04:05:39.443Z,5.63
2023-01-04T04:08:24.921Z,5.76
2023-01-04T04:10:51.618Z,5.88
2023-01-04T04:13:18.076Z,5.86
2023-01-04T04:15:44.756Z,5.82
2023-01-04T04:18:11.343Z,5.71
2023-01-04T04:20:37.856Z,5.75
2023-01-04T04:23:04.384Z,5.82
2023-01-04T04:25:31.219Z,5.60
2023-01-04T04:27:57.667Z,5.77
2023-01-04T04:30:24.101Z,5.74
2023-01-04T04:32:50.579Z,5.65
2023-01-04T04:35:17.262Z,5.65
2023-01-04T04:37:43.717Z,5.83
2023-01-04T04:40:31.049Z,5.71
2023-01-04T04:42:57.535Z,5.77
2023-01-04T04:45:24.050Z,5.82
2023-01-04T04:47:50.479Z,5.84
2023-01-04T04:50:17.038Z,5.89
2023-01-04T04:52:43.418Z,5.98
2023-01-04T04:55:10.023Z,6.01
2023-01-04T04:57:36.384Z,6.11
2023-01-04T05:00:03.748Z,6.23
2023-01-04T05:02:30.463Z,6.22
2023-01-04T05:04:56.950Z,6.23
2023-01-04T05:07:23.431Z,6.44
2023-01-04T05:09:49.880Z,6.31
2023-01-04T05:12:35.124Z,6.32
2023-01-04T05:15:02.955Z,6.27
2023-01-04T05:17:29.413Z,6.14
2023-01-04T05:19:55.930Z,6.23
2023-01-04T05:22:22.429Z,6.42
2023-01-04T05:24:48.985Z,6.40
2023-01-04T05:27:15.493Z,6.34
2023-01-04T05:30:00.407Z,6.33
2023-01-04T05:32:26.826Z,6.25
2023-01-04T05:34:53.332Z,6.15
2023-01-04T05:37:19.754Z,6.25
2023-01-04T05:39:46.331Z,6.22
2023-01-04T05:42:25.104Z,6.23
2023-01-04T05:44:56.838Z,6.24
2023-01-04T05:47:24.333Z,6.18
2023-01-04T05:49:51.670Z,6.23
2023-01-04T05:52:19.142Z,6.30
2023-01-04T05:54:46.362Z,6.31
2023-01-04T05:57:13.289Z,6.36
2023-01-04T05:59:42.093Z,6.39
2023-01-04T06:02:17.469Z,6.45
2023-01-04T06:04:44.097Z,6.41
2023-01-04T06:07:10.532Z,6.45
2023-01-04T06:09:36.963Z,6.49
2023-01-04T06:12:03.803Z,6.48
2023-01-04T06:14:30.413Z,6.45
2023-01-04T06:16:57.238Z,6.42
2023-01-04T06:19:23.771Z,6.35
2023-01-04T06:21:50.275Z,6.42
2023-01-04T06:24:17.058Z,6.45
2023-01-04T06:26:43.466Z,6.40
2023-01-04T06:29:10.079Z,6.32
2023-01-04T06:31:36.571Z,6.37
2023-01-04T06:34:03.460Z,6.27
2023-01-04T06:36:30.565Z,6.25
2023-01-04T06:38:58.067Z,6.37
2023-01-04T06:41:24.939Z,6.31
2023-01-04T06:43:51.784Z,6.23
2023-01-04T06:46:18.568Z,6.24
2023-01-04T06:48:45.258Z,6.23
2023-01-04T06:51:11.868Z,6.16
2023-01-04T06:53:38.310Z,6.24
2023-01-04T06:56:06.304Z,6.23
2023-01-04T06:58:32.772Z,6.22
2023-01-04T07:00:59.270Z,6.25
2023-01-04T07:03:25.862Z,6.32
2023-01-04T07:05:52.368Z,6.33
2023-01-04T07:08:19.616Z,6.32
2023-01-04T07:10:46.600Z,6.32
2023-01-04T07:13:15.148Z,6.33
2023-01-04T07:15:41.647Z,6.31
2023-01-04T07:18:11.188Z,6.33
2023-01-04T07:20:38.724Z,6.30
2023-01-04T07:23:06.709Z,6.37
2023-01-04T07:25:33.729Z,6.40
2023-01-04T07:28:00.289Z,6.36
2023-01-04T07:30:26.724Z,6.43
2023-01-04T07:32:54.207Z,6.39
2023-01-04T07:35:21.938Z,6.42
2023-01-04T07:37:53.805Z,6.52
2023-01-04T07:40:24.444Z,6.50
2023-01-04T07:42:57.004Z,6.49
2023-01-04T07:45:24.143Z,6.46
2023-01-04T07:47:50.554Z,6.52
2023-01-04T07:50:17.441Z,6.53
2023-01-04T07:52:43.851Z,6.58
2023-01-04T07:55:10.444Z,6.63
2023-01-04T07:57:36.921Z,6.55
2023-01-04T08:00:04.699Z,6.55
2023-01-04T08:02:31.417Z,6.56
2023-01-04T08:04:57.998Z,6.56
2023-01-04T08:07:24.504Z,6.56
2023-01-04T08:09:50.967Z,6.56
2023-01-04T08:12:17.524Z,6.54
2023-01-04T08:14:43.946Z,6.60
2023-01-04T08:17:10.382Z,6.57
2023-01-04T08:19:36.912Z,6.67
2023-01-04T08:22:03.486Z,6.67
2023-01-04T08:24:30.077Z,6.74
2023-01-04T08:26:56.585Z,6.72
2023-01-04T08:29:23.032Z,6.78
2023-01-04T08:31:49.665Z,6.86
2023-01-04T08:34:16.423Z,6.84
2023-01-04T08:36:50.490Z,6.89
2023-01-04T08:39:17.087Z,6.91
2023-01-04T08:41:58.902Z,6.91
2023-01-04T08:44:29.753Z,6.88
2023-01-04T08:46:56.673Z,6.96
2023-01-04T08:49:24.727Z,6.95
2023-01-04T08:51:51.338Z,6.98
2023-01-04T08:54:18.308Z,7.07
2023-01-04T08:56:44.967Z,7.05
2023-01-04T08:59:13.441Z,7.00
2023-01-04T09:01:40.996Z,7.13
2023-01-04T09:04:08.431Z,7.11
2023-01-04T09:06:36.151Z,7.13
2023-01-04T09:09:02.644Z,7.41
2023-01-04T09:11:29.204Z,7.32
2023-01-04T09:14:07.178Z,7.39
2023-01-04T09:16:35.641Z,7.31
2023-01-04T09:19:02.365Z,7.35
2023-01-04T09:21:29.165Z,7.30
2023-01-04T09:23:58.642Z,7.38
2023-01-04T09:26:25.222Z,7.41
2023-01-04T09:28:53.624Z,7.40
2023-01-04T09:31:22.941Z,7.40
2023-01-04T09:36:36.495Z,7.52
2023-01-04T09:39:03.104Z,7.48
2023-01-04T09:41:34.563Z,7.67
2023-01-04T09:44:05.075Z,7.76
2023-01-04T09:46:45.486Z,7.87
2023-01-04T09:49:31.572Z,7.72
2023-01-04T09:52:10.267Z,7.73
2023-01-04T09:54:42.472Z,7.80
2023-01-04T09:57:20.082Z,7.82
2023-01-04T09:59:49.887Z,7.85
2023-01-04T10:02:25.944Z,7.82
2023-01-04T10:04:52.762Z,7.89
2023-01-04T10:07:29.802Z,7.89
2023-01-04T10:09:58.435Z,7.90
2023-01-04T10:12:48.701Z,7.93
2023-01-04T10:15:27.411Z,7.97
2023-01-04T10:24:07.057Z,8.02
2023-01-04T10:26:48.386Z,7.99
2023-01-04T10:30:02.569Z,8.12
2023-01-04T10:32:46.559Z,8.08
2023-01-04T10:35:25.702Z,8.03
2023-01-04T10:37:58.217Z,7.96
2023-01-04T10:40:27.861Z,7.99
2023-01-04T10:43:07.267Z,8.07
2023-01-04T10:46:02.528Z,8.31
2023-01-04T10:48:44.251Z,8.23
2023-01-04T10:51:14.913Z,8.30
2023-01-04T10:53:51.395Z,8.53
2023-01-04T10:56:24.877Z,8.47
2023-01-04T10:59:07.891Z,8.41
2023-01-04T11:01:52.739Z,8.44
2023-01-04T11:04:29.067Z,8.57
2023-01-04T11:07:17.833Z,8.42
2023-01-04T11:09:52.231Z,8.74
2023-01-04T11:12:21.926Z,8.52
2023-01-04T11:14:50.429Z,8.49
2023-01-04T11:17:17.761Z,8.66
2023-01-04T11:19:44.536Z,8.68
2023-01-04T11:22:13.601Z,8.48
2023-01-04T11:25:00.513Z,8.48
2023-01-04T11:27:32.419Z,8.42
2023-01-04T11:30:13.632Z,8.52
2023-01-04T11:32:44.564Z,8.42
2023-01-04T11:35:11.294Z,8.40
2023-01-04T11:37:40.542Z,8.47
2023-01-04T11:40:20.961Z,8.45
2023-01-04T11:42:53.461Z,8.43
2023-01-04T11:45:21.748Z,8.57
2023-01-04T11:47:50.658Z,8.64
2023-01-04T11:50:46.748Z,8.52
2023-01-04T11:53:35.836Z,8.73
2023-01-04T11:56:18.345Z,8.73
2023-01-04T11:59:06.631Z,8.56
2023-01-04T12:01:36.628Z,8.67
2023-01-04T12:04:10.329Z,8.69
2023-01-04T12:06:41.258Z,8.73
2023-01-04T12:09:14.564Z,8.73
2023-01-04T12:11:46.264Z,8.59
2023-01-04T12:14:22.528Z,8.60
2023-01-04T12:16:56.144Z,8.66
2023-01-04T12:19:23.164Z,8.53
2023-01-04T12:21:53.092Z,8.73
2023-01-04T12:24:25.994Z,8.75
2023-01-04T12:26:53.451Z,8.58
2023-01-04T12:29:22.580Z,8.41
2023-01-04T12:31:50.528Z,8.49
2023-01-04T12:34:38.866Z,8.65
2023-01-04T12:37:06.619Z,8.43
2023-01-04T12:39:39.001Z,8.28
2023-01-04T12:42:11.665Z,8.25
2023-01-04T12:44:43.233Z,8.18
2023-01-04T12:47:48.855Z,8.16
2023-01-04T12:50:16.815Z,8.21
2023-01-04T12:55:43.770Z,7.99
2023-01-04T12:59:06.579Z,8.04
2023-01-04T13:01:27.845Z,8.07
2023-01-04T13:04:04.302Z,8.04
2023-01-04T13:06:35.740Z,8.08
2023-01-04T13:09:02.609Z,8.06
2023-01-04T13:12:06.412Z,8.07
2023-01-04T13:14:52.661Z,8.23
2023-01-04T13:17:22.421Z,8.23
2023-01-04T13:19:49.884Z,8.22
2023-01-04T13:22:28.879Z,8.25
2023-01-04T13:24:58.861Z,8.25
2023-01-04T13:27:27.185Z,8.33
2023-01-04T13:29:54.317Z,8.35
2023-01-04T13:32:26.498Z,8.44
2023-01-04T13:34:53.246Z,8.40
2023-01-04T13:37:25.674Z,8.46
2023-01-04T13:40:02.482Z,8.44
2023-01-04T13:42:39.201Z,8.55
2023-01-04T13:45:27.140Z,8.65
2023-01-04T13:47:58.667Z,8.59
2023-01-04T13:50:33.502Z,8.68
2023-01-04T13:53:07.027Z,8.64
2023-01-04T13:55:37.849Z,8.61
2023-01-04T13:58:07.513Z,8.70
2023-01-04T14:00:45.936Z,8.78
2023-01-04T14:03:15.422Z,8.80
2023-01-04T14:05:51.192Z,8.86
2023-01-04T14:08:31.513Z,8.86
2023-01-04T14:10:58.262Z,8.92
2023-01-04T14:13:24.907Z,9.02
2023-01-04T14:16:14.196Z,8.99
2023-01-04T14:18:40.827Z,8.99
2023-01-04T14:21:18.333Z,9.02
2023-01-04T14:23:45.152Z,9.04
2023-01-04T14:26:34.135Z,9.04
2023-01-04T14:29:21.341Z,9.00
2023-01-04T14:31:50.225Z,9.10
2023-01-04T14:34:16.888Z,9.30
2023-01-04T14:36:43.899Z,9.35
2023-01-04T14:39:18.450Z,9.36
2023-01-04T14:41:54.595Z,9.26
2023-01-04T14:44:28.264Z,9.25
2023-01-04T14:46:57.702Z,9.40
2023-01-04T14:49:27.029Z,9.31
2023-01-04T14:51:58.771Z,9.24
2023-01-04T14:54:27.866Z,9.30
2023-01-04T14:56:55.599Z,9.30
2023-01-04T14:59:23.815Z,9.26
2023-01-04T15:01:54.952Z,9.32
2023-01-04T15:04:22.075Z,9.23
2023-01-04T15:06:58.392Z,9.36
2023-01-04T15:09:25.233Z,9.43
2023-01-04T15:11:51.787Z,9.32
2023-01-04T15:14:18.656Z,9.36
2023-01-04T15:16:45.317Z,9.45
2023-01-04T15:19:11.838Z,9.48
2023-01-04T15:21:41.237Z,9.50
2023-01-04T15:24:09.103Z,9.46
2023-01-04T15:26:35.689Z,9.45
2023-01-04T15:29:02.313Z,9.53
2023-01-04T15:31:34.992Z,9.41
2023-01-04T15:34:04.910Z,9.48
2023-01-04T15:36:31.493Z,9.55
2023-01-04T15:38:58.491Z,9.56
2023-01-04T15:41:45.241Z,9.64
2023-01-04T15:44:12.001Z,9.72
2023-01-04T15:46:39.057Z,9.63
2023-01-04T15:49:06.122Z,9.59
2023-01-04T15:51:33.693Z,9.64
2023-01-04T15:54:00.194Z,9.76
2023-01-04T15:56:26.625Z,9.69
2023-01-04T15:58:54.990Z,9.73
2023-01-04T16:01:22.339Z,9.78
2023-01-04T16:03:53.410Z,9.66
2023-01-04T16:06:21.001Z,9.75
2023-01-04T16:08:48.828Z,9.72
2023-01-04T16:11:23.337Z,9.62
2023-01-04T16:13:51.709Z,9.67
2023-01-04T16:16:19.989Z,9.68
2023-01-04T16:18:49.225Z,9.60
2023-01-04T16:21:18.661Z,9.72
2023-01-04T16:23:49.812Z,9.74
2023-01-04T16:26:16.398Z,9.66
2023-01-04T16:28:42.920Z,9.71
2023-01-04T16:31:10.080Z,9.60
2023-01-04T16:33:36.978Z,9.62
2023-01-04T16:36:06.209Z,9.68
2023-01-04T16:38:37.159Z,9.74
2023-01-04T16:41:05.241Z,9.83
2023-01-04T16:43:32.624Z,9.80
2023-01-04T16:46:14.373Z,9.92
2023-01-04T16:48:42.608Z,10.00
2023-01-04T16:51:09.392Z,9.87
2023-01-04T16:53:36.701Z,9.66
2023-01-04T16:56:14.584Z,9.69
2023-01-04T16:58:44.253Z,9.75
2023-01-04T17:01:18.055Z,9.75
2023-01-04T17:03:46.410Z,9.78
2023-01-04T17:06:23.654Z,9.71
2023-01-04T17:08:52.727Z,9.68
2023-01-04T17:14:13.488Z,9.75
2023-01-04T17:16:40.910Z,9.77
2023-01-04T17:19:07.632Z,9.74
2023-01-04T17:21:35.339Z,9.83
2023-01-04T17:24:03.163Z,9.74
2023-01-04T17:26:32.135Z,9.95
2023-01-04T17:29:00.777Z,9.88
2023-01-04T17:31:42.523Z,9.86
2023-01-04T17:34:18.478Z,9.84
2023-01-04T17:36:48.740Z,9.80
2023-01-04T17:39:15.380Z,9.82
2023-01-04T17:41:42.245Z,9.75
2023-01-04T17:44:09.928Z,9.60
2023-01-04T17:46:37.569Z,9.52
2023-01-04T17:49:22.247Z,9.56
2023-01-04T17:51:51.098Z,9.58
2023-01-04T17:54:18.041Z,9.68
2023-01-04T17:56:44.786Z,9.70
2023-01-04T17:59:12.471Z,9.78
2023-01-04T18:01:39.005Z,9.75
2023-01-04T18:04:05.946Z,9.80
2023-01-04T18:06:35.234Z,9.76
2023-01-04T18:09:04.300Z,9.71
2023-01-04T18:11:31.307Z,9.69
2023-01-04T18:13:58.100Z,9.78
2023-01-04T18:16:27.261Z,9.71
2023-01-04T18:18:59.024Z,9.93
2023-01-04T18:21:32.578Z,10.00
2023-01-04T18:24:34.664Z,10.15
2023-01-04T18:27:19.911Z,10.24
2023-01-04T18:29:34.019Z,10.15
2023-01-04T18:32:00.672Z,10.17
2023-01-04T18:34:27.358Z,10.06
2023-01-04T18:36:54.056Z,10.17
2023-01-04T18:39:20.931Z,10.35
2023-01-04T18:41:47.482Z,10.35
2023-01-04T18:47:01.600Z,10.52
2023-01-04T18:49:28.210Z,10.60
2023-01-04T18:51:54.700Z,10.60
2023-01-04T18:54:21.554Z,10.57
2023-01-04T18:56:48.334Z,10.59
2023-01-04T18:59:17.424Z,10.64
2023-01-04T19:01:45.637Z,10.72
2023-01-04T19:04:12.733Z,10.75
2023-01-04T19:06:40.969Z,10.80
2023-01-04T19:09:07.814Z,10.71
2023-01-04T19:11:35.403Z,10.79
2023-01-04T19:14:02.536Z,10.80
2023-01-04T19:16:32.051Z,10.93
2023-01-04T19:18:59.742Z,10.81
2023-01-04T19:21:26.951Z,10.77
2023-01-04T19:23:53.893Z,10.78
2023-01-04T19:26:21.459Z,10.85
2023-01-04T19:28:48.837Z,10.74
2023-01-04T19:31:17.043Z,10.70
2023-01-04T19:33:44.072Z,10.58
2023-01-04T19:36:12.460Z,10.54
2023-01-04T19:38:39.701Z,10.60
2023-01-04T19:41:07.812Z,10.66
2023-01-04T19:43:35.479Z,10.68
2023-01-04T19:46:02.213Z,10.67
2023-01-04T19:48:30.525Z,10.75
2023-01-04T19:51:16.467Z,10.75
2023-01-04T19:53:44.275Z,10.73
2023-01-04T19:56:12.232Z,10.75
2023-01-04T19:58:38.750Z,10.75
2023-01-04T20:01:06.129Z,10.80
2023-01-04T20:03:33.353Z,10.79
2023-01-04T20:06:04.659Z,10.86
2023-01-04T20:08:31.308Z,10.80
2023-01-04T20:10:59.581Z,10.73
2023-01-04T20:13:27.214Z,10.85
2023-01-04T20:15:54.070Z,10.79
2023-01-04T20:18:21.221Z,10.79
2023-01-04T20:20:47.727Z,10.81
2023-01-04T20:23:15.014Z,10.71
2023-01-04T20:25:43.005Z,10.81
2023-01-04T20:28:09.851Z,10.92
2023-01-04T20:30:36.933Z,10.87
2023-01-04T20:33:03.890Z,10.90
2023-01-04T20:35:31.420Z,10.86
2023-01-04T20:37:58.468Z,10.75
2023-01-04T20:40:25.637Z,10.82
2023-01-04T20:43:10.663Z,10.88
2023-01-04T20:45:47.717Z,10.93
2023-01-04T20:48:15.708Z,10.97
2023-01-04T20:50:42.729Z,11.01
2023-01-04T20:53:09.603Z,11.13
2023-01-04T20:55:40.591Z,11.00
2023-01-04T20:58:13.276Z,11.13
2023-01-04T21:00:40.883Z,11.03
2023-01-04T21:03:09.842Z,11.19
2023-01-04T21:05:41.811Z,11.21
2023-01-04T21:08:09.127Z,11.01
2023-01-04T21:10:36.524Z,11.10
2023-01-04T21:13:03.797Z,11.15
2023-01-04T21:15:30.606Z,11.05
2023-01-04T21:17:57.602Z,11.11
2023-01-04T21:20:24.616Z,11.15
2023-01-04T21:22:51.212Z,11.06
2023-01-04T21:25:17.895Z,11.03
2023-01-04T21:27:44.451Z,11.06
2023-01-04T21:30:11.604Z,10.95
2023-01-04T21:32:38.192Z,10.89
2023-01-04T21:35:05.153Z,10.86
2023-01-04T21:37:31.626Z,10.84
2023-01-04T21:39:58.134Z,11.01
2023-01-04T21:42:24.628Z,10.98
2023-01-04T21:44:51.307Z,10.91
2023-01-04T21:47:17.726Z,11.01
2023-01-04T21:49:44.372Z,11.00
2023-01-04T21:52:11.719Z,10.99
2023-01-04T21:54:38.872Z,10.93
2023-01-04T21:57:07.913Z,11.10
2023-01-04T21:59:36.143Z,10.93
2023-01-04T22:02:03.567Z,10.89
2023-01-04T22:04:30.830Z,10.82
2023-01-04T22:06:58.075Z,10.93
2023-01-04T22:09:25.497Z,10.94
2023-01-04T22:11:52.284Z,10.88
2023-01-04T22:14:18.996Z,11.02
2023-01-04T22:16:45.768Z,11.05
2023-01-04T22:19:13.731Z,11.00
2023-01-04T22:21:40.852Z,11.10
2023-01-04T22:24:08.251Z,11.19
2023-01-04T22:26:34.645Z,11.17
2023-01-04T22:29:01.225Z,11.21
2023-01-04T22:31:27.789Z,11.16
2023-01-04T22:33:54.336Z,11.22
2023-01-04T22:36:23.393Z,11.23
2023-01-04T22:38:55.873Z,11.17
2023-01-04T22:41:24.733Z,11.19
2023-01-04T22:43:59.714Z,11.06
2023-01-04T22:46:28.792Z,11.15
2023-01-04T22:48:55.949Z,11.27
2023-01-04T22:51:23.763Z,11.01
2023-01-04T22:53:54.711Z,11.00
2023-01-04T22:56:22.833Z,11.08
2023-01-04T22:58:54.283Z,11.03
2023-01-04T23:01:23.179Z,10.96
2023-01-04T23:03:51.754Z,11.08
2023-01-04T23:06:20.271Z,10.90
2023-01-04T23:08:46.831Z,10.88
2023-01-04T23:11:17.193Z,11.02
2023-01-04T23:13:44.040Z,10.97
2023-01-04T23:16:13.201Z,10.92
2023-01-04T23:18:39.935Z,11.04
2023-01-04T23:21:07.238Z,10.98
2023-01-04T23:23:33.872Z,10.89
2023-01-04T23:26:13.405Z,11.02
2023-01-04T23:28:39.943Z,11.14
2023-01-04T23:31:10.650Z,11.02
2023-01-04T23:33:37.356Z,10.96
2023-01-04T23:36:11.422Z,10.99
2023-01-04T23:38:38.757Z,10.96
2023-01-04T23:41:05.701Z,10.96
2023-01-04T23:43:35.998Z,11.00
2023-01-04T23:46:13.192Z,10.90
2023-01-04T23:48:40.569Z,11.02
2023-01-04T23:51:07.380Z,11.09
2023-01-04T23:53:34.018Z,11.12
2023-01-04T23:56:12.617Z,11.12
2023-01-04T23:58:39.068Z,11.14
